createdAt,value
2018-12-16T00:00:55.898Z,19.97
2018-12-16T00:03:23.354Z,19.27
2018-12-16T00:05:51.013Z,19.27
2018-12-16T00:08:18.474Z,19.47
2018-12-16T00:10:46.193Z,20.87
2018-12-16T00:13:13.646Z,19.57
2018-12-16T00:15:41.480Z,17.67
2018-12-16T00:18:08.917Z,18.30
2018-12-16T00:20:36.694Z,18.03
2018-12-16T00:23:04.238Z,20.13
2018-12-16T00:25:31.713Z,19.27
2018-12-16T00:27:59.637Z,20.97
2018-12-16T00:30:27.326Z,20.13
2018-12-16T00:32:54.879Z,20.40
2018-12-16T00:35:23.297Z,20.47
2018-12-16T00:37:50.753Z,19.97
2018-12-16T00:40:18.250Z,22.57
2018-12-16T00:42:45.715Z,20.60
2018-12-16T00:45:13.269Z,20.10
2018-12-16T00:47:40.746Z,20.07
2018-12-16T00:50:08.613Z,21.03
2018-12-16T00:52:36.625Z,21.70
2018-12-16T00:55:04.799Z,20.53
2018-12-16T00:57:32.233Z,21.23
2018-12-16T00:59:59.685Z,21.90
2018-12-16T01:02:32.826Z,19.57
2018-12-16T01:05:00.484Z,21.97
2018-12-16T01:07:27.973Z,19.23
2018-12-16T01:09:55.689Z,20.27
2018-12-16T01:12:23.157Z,21.23
2018-12-16T01:14:51.017Z,20.53
2018-12-16T01:17:18.481Z,21.47
2018-12-16T01:19:46.287Z,17.70
2018-12-16T01:22:13.942Z,20.33
2018-12-16T01:24:41.397Z,18.70
2018-12-16T01:27:09.370Z,19.07
2018-12-16T01:29:37.332Z,19.90
2018-12-16T01:32:05.036Z,19.27
2018-12-16T01:34:32.821Z,19.33
2018-12-16T01:37:00.466Z,19.33
2018-12-16T01:39:27.925Z,18.97
2018-12-16T01:41:55.381Z,21.30
2018-12-16T01:44:22.906Z,21.50
2018-12-16T01:46:50.413Z,21.53
2018-12-16T01:49:17.886Z,18.17
2018-12-16T01:51:45.530Z,19.03
2018-12-16T01:54:12.991Z,19.50
2018-12-16T01:56:40.683Z,21.70
2018-12-16T01:59:08.147Z,20.03
2018-12-16T02:01:35.597Z,20.67
2018-12-16T02:04:03.567Z,19.17
2018-12-16T02:06:31.010Z,18.00
2018-12-16T02:08:58.843Z,18.17
2018-12-16T02:11:26.747Z,18.97
2018-12-16T02:13:54.238Z,20.00
2018-12-16T02:16:21.711Z,19.03
2018-12-16T02:18:49.383Z,19.63
2018-12-16T02:21:16.841Z,20.40
2018-12-16T02:23:44.318Z,20.00
2018-12-16T02:26:12.065Z,20.67
2018-12-16T02:28:39.937Z,21.50
2018-12-16T02:31:07.677Z,21.00
2018-12-16T02:33:35.193Z,19.80
2018-12-16T02:36:03.734Z,21.27
2018-12-16T02:38:31.280Z,21.83
2018-12-16T02:40:58.774Z,21.73
2018-12-16T02:43:26.245Z,17.87
2018-12-16T02:45:53.694Z,18.53
2018-12-16T02:48:21.204Z,19.57
2018-12-16T02:50:49.096Z,19.33
2018-12-16T02:53:16.555Z,20.93
2018-12-16T02:55:44.053Z,20.13
2018-12-16T02:58:11.964Z,17.43
2018-12-16T03:00:39.520Z,18.87
2018-12-16T03:03:07.029Z,19.63
2018-12-16T03:05:35.111Z,17.63
2018-12-16T03:08:02.570Z,19.03
2018-12-16T03:10:30.341Z,19.33
2018-12-16T03:12:57.846Z,18.67
2018-12-16T03:15:25.307Z,17.80
2018-12-16T03:17:52.826Z,19.93
2018-12-16T03:20:20.755Z,17.87
2018-12-16T03:22:48.242Z,18.67
2018-12-16T03:25:15.990Z,16.17
2018-12-16T03:27:43.949Z,17.60
2018-12-16T03:30:11.773Z,20.03
2018-12-16T03:32:39.757Z,20.00
2018-12-16T03:35:07.611Z,19.20
2018-12-16T03:37:35.172Z,18.47
2018-12-16T03:40:02.673Z,20.63
2018-12-16T03:42:30.336Z,19.37
2018-12-16T03:44:58.116Z,18.93
2018-12-16T03:47:25.559Z,18.63
2018-12-16T03:49:53.325Z,19.43
2018-12-16T03:52:20.786Z,19.23
2018-12-16T03:54:48.226Z,19.63
2018-12-16T03:57:15.932Z,17.60
2018-12-16T03:59:43.396Z,18.57
2018-12-16T04:02:10.849Z,23.47
2018-12-16T04:04:38.654Z,19.57
2018-12-16T04:07:06.129Z,19.50
2018-12-16T04:09:34.605Z,20.57
2018-12-16T04:12:02.462Z,20.77
2018-12-16T04:14:30.019Z,16.90
2018-12-16T04:16:57.632Z,19.37
2018-12-16T04:19:25.235Z,22.13
2018-12-16T04:21:52.762Z,21.50
2018-12-16T04:24:20.353Z,20.43
2018-12-16T04:26:48.063Z,20.33
2018-12-16T04:29:15.769Z,21.37
2018-12-16T04:31:43.649Z,20.40
2018-12-16T04:34:11.440Z,20.33
2018-12-16T04:36:39.146Z,19.93
2018-12-16T04:39:06.625Z,20.57
2018-12-16T04:41:34.091Z,18.80
2018-12-16T04:44:01.966Z,20.17
2018-12-16T04:46:29.404Z,21.60
2018-12-16T04:48:56.864Z,19.47
2018-12-16T04:51:24.429Z,18.87
2018-12-16T04:53:51.882Z,20.53
2018-12-16T04:56:19.769Z,20.83
2018-12-16T04:58:47.223Z,20.20
2018-12-16T05:01:14.725Z,19.10
2018-12-16T05:03:42.217Z,20.00
2018-12-16T05:06:10.225Z,20.63
2018-12-16T05:08:37.660Z,19.63
2018-12-16T05:11:05.150Z,19.97
2018-12-16T05:13:32.873Z,20.03
2018-12-16T05:16:00.341Z,19.90
2018-12-16T05:18:27.983Z,21.53
2018-12-16T05:20:55.799Z,22.30
2018-12-16T05:23:23.254Z,20.80
2018-12-16T05:25:50.714Z,20.07
2018-12-16T05:28:18.417Z,19.07
2018-12-16T05:30:46.029Z,20.50
2018-12-16T05:33:13.746Z,21.60
2018-12-16T05:35:41.458Z,20.33
2018-12-16T05:38:08.943Z,20.07
2018-12-16T05:40:36.390Z,24.27
2018-12-16T05:43:05.510Z,21.27
2018-12-16T05:45:32.952Z,20.23
2018-12-16T05:48:00.485Z,21.63
2018-12-16T05:50:28.391Z,23.87
2018-12-16T05:52:55.848Z,21.83
2018-12-16T05:55:23.358Z,20.67
2018-12-16T05:57:51.144Z,21.83
2018-12-16T06:00:18.601Z,23.03
2018-12-16T06:02:46.066Z,22.07
2018-12-16T06:05:14.953Z,23.90
2018-12-16T06:07:43.018Z,23.87
2018-12-16T06:10:10.510Z,20.73
2018-12-16T06:12:38.061Z,20.97
2018-12-16T06:15:05.601Z,23.43
2018-12-16T06:17:33.051Z,20.17
2018-12-16T06:20:00.653Z,22.80
2018-12-16T06:22:28.184Z,24.83
2018-12-16T06:24:55.648Z,23.33
2018-12-16T06:27:25.064Z,21.73
2018-12-16T06:29:53.135Z,23.60
2018-12-16T06:32:20.893Z,20.73
2018-12-16T06:34:48.801Z,24.77
2018-12-16T06:37:16.258Z,23.07
2018-12-16T06:39:43.720Z,22.90
2018-12-16T06:42:11.621Z,22.93
2018-12-16T06:44:39.081Z,23.60
2018-12-16T06:47:06.541Z,22.97
2018-12-16T06:49:35.542Z,23.83
2018-12-16T06:52:02.989Z,22.07
2018-12-16T06:54:31.039Z,21.50
2018-12-16T06:56:58.929Z,23.97
2018-12-16T06:59:26.909Z,21.80
2018-12-16T07:01:54.363Z,21.87
2018-12-16T07:04:22.165Z,24.03
2018-12-16T07:06:49.613Z,21.07
2018-12-16T07:09:17.058Z,19.73
2018-12-16T07:11:44.526Z,19.53
2018-12-16T07:14:12.203Z,20.37
2018-12-16T07:16:40.674Z,21.70
2018-12-16T07:19:08.357Z,20.90
2018-12-16T07:21:35.825Z,21.07
2018-12-16T07:24:08.998Z,22.50
2018-12-16T07:26:32.742Z,21.63
2018-12-16T07:29:00.789Z,22.60
2018-12-16T07:31:28.440Z,23.23
2018-12-16T07:33:56.670Z,23.67
2018-12-16T07:36:24.573Z,20.73
2018-12-16T07:38:52.042Z,23.30
2018-12-16T07:41:19.599Z,20.37
2018-12-16T07:43:47.332Z,22.00
2018-12-16T07:46:15.145Z,23.77
2018-12-16T07:48:42.671Z,21.17
2018-12-16T07:51:10.357Z,22.07
2018-12-16T07:53:38.076Z,22.70
2018-12-16T07:56:05.537Z,24.10
2018-12-16T07:58:32.993Z,26.50
2018-12-16T08:01:00.583Z,23.50
2018-12-16T08:03:28.039Z,23.50
2018-12-16T08:05:55.797Z,24.47
2018-12-16T08:08:23.241Z,24.30
2018-12-16T08:19:45.722Z,25.03
2018-12-16T08:22:13.803Z,26.93
2018-12-16T08:24:41.320Z,25.70
2018-12-16T08:27:09.136Z,26.40
2018-12-16T08:29:37.284Z,27.13
2018-12-16T08:32:04.936Z,25.57
2018-12-16T08:34:32.743Z,22.77
2018-12-16T08:37:00.184Z,25.87
2018-12-16T08:39:27.719Z,24.17
2018-12-16T08:41:55.166Z,25.03
2018-12-16T08:44:22.617Z,24.43
2018-12-16T08:46:50.081Z,25.50
2018-12-16T08:49:17.785Z,25.87
2018-12-16T08:51:45.392Z,23.03
2018-12-16T08:54:13.167Z,25.50
2018-12-16T08:56:40.680Z,25.97
2018-12-16T08:59:08.181Z,23.70
2018-12-16T09:01:35.693Z,25.07
2018-12-16T09:04:03.845Z,25.60
2018-12-16T09:06:31.301Z,25.57
2018-12-16T09:08:59.082Z,25.10
2018-12-16T09:11:26.701Z,24.50
2018-12-16T09:13:54.222Z,23.90
2018-12-16T09:16:21.651Z,23.67
2018-12-16T09:18:49.529Z,25.77
2018-12-16T09:21:23.582Z,23.87
2018-12-16T09:23:51.393Z,24.57
2018-12-16T09:26:18.836Z,23.93
2018-12-16T09:28:46.429Z,24.57
2018-12-16T09:31:13.969Z,23.03
2018-12-16T09:33:41.630Z,24.23
2018-12-16T09:36:09.301Z,25.47
2018-12-16T09:38:36.757Z,22.37
2018-12-16T09:41:04.593Z,25.10
2018-12-16T09:43:32.074Z,23.27
2018-12-16T09:45:59.513Z,24.17
2018-12-16T09:48:27.277Z,22.57
2018-12-16T09:50:55.120Z,26.13
2018-12-16T09:53:22.574Z,25.13
2018-12-16T09:55:50.133Z,22.33
2018-12-16T09:58:17.611Z,27.17
2018-12-16T10:00:45.945Z,26.87
2018-12-16T10:03:18.987Z,23.57
2018-12-16T10:05:46.938Z,23.03
2018-12-16T10:08:14.423Z,23.27
2018-12-16T10:10:42.289Z,25.03
2018-12-16T10:13:09.738Z,21.30
2018-12-16T10:15:37.190Z,22.23
2018-12-16T10:18:04.741Z,25.10
2018-12-16T10:20:32.362Z,22.70
2018-12-16T10:22:59.820Z,22.63
2018-12-16T10:25:27.307Z,22.43
2018-12-16T10:27:55.359Z,22.43
2018-12-16T10:30:23.073Z,23.93
2018-12-16T10:35:29.337Z,24.80
2018-12-16T10:37:56.793Z,23.90
2018-12-16T10:40:25.189Z,22.93
2018-12-16T10:42:52.700Z,20.97
2018-12-16T10:45:20.137Z,23.00
2018-12-16T10:47:47.651Z,23.80
2018-12-16T10:50:15.369Z,23.73
2018-12-16T10:52:42.829Z,23.17
2018-12-16T10:55:10.274Z,22.67
2018-12-16T10:57:37.749Z,23.30
2018-12-16T11:00:20.273Z,23.63
2018-12-16T11:02:49.596Z,24.03
2018-12-16T11:05:18.759Z,24.60
2018-12-16T11:07:46.217Z,25.40
2018-12-16T11:10:13.752Z,24.07
2018-12-16T11:12:41.497Z,20.80
2018-12-16T11:15:08.986Z,22.87
2018-12-16T11:17:36.781Z,26.33
2018-12-16T11:20:05.064Z,23.57
2018-12-16T11:22:32.572Z,22.20
2018-12-16T11:25:05.639Z,25.00
2018-12-16T11:27:31.071Z,23.93
2018-12-16T11:29:59.053Z,24.20
2018-12-16T11:32:26.781Z,22.57
2018-12-16T11:34:54.592Z,21.73
2018-12-16T11:37:22.129Z,23.37
2018-12-16T11:39:49.577Z,21.33
2018-12-16T11:42:17.060Z,20.47
2018-12-16T11:44:44.526Z,22.67
2018-12-16T11:47:11.978Z,22.77
2018-12-16T11:49:40.010Z,21.53
2018-12-16T11:52:07.497Z,20.90
2018-12-16T11:54:34.960Z,20.30
2018-12-16T11:57:02.428Z,21.77
2018-12-16T11:59:29.881Z,21.13
2018-12-16T12:01:57.341Z,22.33
2018-12-16T12:04:25.182Z,20.10
2018-12-16T12:06:52.641Z,22.90
2018-12-16T12:09:20.118Z,23.17
2018-12-16T12:11:48.583Z,23.27
2018-12-16T12:14:16.036Z,25.37
2018-12-16T12:16:43.504Z,22.60
2018-12-16T12:19:11.300Z,24.10
2018-12-16T12:21:38.762Z,24.67
2018-12-16T12:24:06.643Z,24.70
2018-12-16T12:26:34.125Z,25.40
2018-12-16T12:29:01.777Z,24.40
2018-12-16T12:31:29.720Z,24.63
2018-12-16T12:33:57.578Z,28.57
2018-12-16T12:38:46.800Z,24.10
2018-12-16T12:41:14.253Z,24.57
2018-12-16T12:43:41.718Z,22.20
2018-12-16T12:46:09.449Z,22.30
2018-12-16T12:51:10.858Z,25.97
2018-12-16T12:53:38.345Z,25.47
2018-12-16T12:56:06.108Z,27.17
2018-12-16T12:58:33.554Z,24.40
2018-12-16T13:01:01.005Z,30.53
2018-12-16T13:03:28.470Z,26.00
2018-12-16T13:05:57.644Z,26.90
2018-12-16T13:08:25.243Z,24.23
2018-12-16T13:10:53.956Z,26.13
2018-12-16T13:13:21.668Z,25.67
2018-12-16T13:15:49.185Z,24.00
2018-12-16T13:18:17.140Z,26.53
2018-12-16T13:20:44.809Z,24.77
2018-12-16T13:23:12.277Z,23.13
2018-12-16T13:26:05.430Z,25.77
2018-12-16T13:28:32.995Z,24.83
2018-12-16T13:31:00.808Z,26.90
2018-12-16T13:33:28.474Z,25.53
2018-12-16T13:35:56.296Z,29.03
2018-12-16T13:38:23.773Z,26.57
2018-12-16T13:40:51.598Z,26.97
2018-12-16T13:43:19.053Z,29.57
2018-12-16T13:45:46.512Z,25.73
2018-12-16T13:48:13.974Z,27.30
2018-12-16T13:50:41.553Z,29.00
2018-12-16T13:53:09.256Z,26.47
2018-12-16T13:55:40.891Z,26.20
2018-12-16T13:58:06.265Z,26.87
2018-12-16T14:00:33.737Z,26.27
2018-12-16T14:03:01.441Z,27.57
2018-12-16T14:05:29.357Z,25.07
2018-12-16T14:07:56.821Z,25.47
2018-12-16T14:10:24.297Z,25.40
2018-12-16T14:12:51.753Z,29.03
2018-12-16T14:15:19.218Z,30.07
2018-12-16T14:17:46.845Z,27.50
2018-12-16T14:20:14.457Z,26.57
2018-12-16T14:22:41.910Z,29.03
2018-12-16T14:25:09.371Z,28.20
2018-12-16T14:27:36.974Z,29.57
2018-12-16T14:30:07.022Z,28.07
2018-12-16T14:32:34.828Z,31.73
2018-12-16T14:35:02.581Z,26.90
2018-12-16T14:37:30.030Z,27.87
2018-12-16T14:39:57.472Z,27.13
2018-12-16T14:42:24.977Z,27.93
2018-12-16T14:44:52.498Z,28.67
2018-12-16T14:47:20.313Z,30.73
2018-12-16T14:49:48.237Z,30.13
2018-12-16T14:52:15.746Z,29.63
2018-12-16T14:54:43.202Z,32.23
2018-12-16T14:57:10.656Z,27.40
2018-12-16T14:59:38.108Z,26.63
2018-12-16T15:02:05.674Z,28.40
2018-12-16T15:04:33.434Z,27.83
2018-12-16T15:07:00.965Z,27.87
2018-12-16T15:09:28.466Z,25.07
2018-12-16T15:11:55.969Z,29.10
2018-12-16T15:14:23.408Z,27.33
2018-12-16T15:16:50.856Z,28.77
2018-12-16T15:19:18.493Z,27.27
2018-12-16T15:21:46.067Z,31.80
2018-12-16T15:24:13.518Z,27.87
2018-12-16T15:26:41.256Z,28.63
2018-12-16T15:29:08.870Z,28.43
2018-12-16T15:31:36.486Z,30.27
2018-12-16T15:34:04.194Z,32.83
2018-12-16T15:36:31.988Z,28.80
2018-12-16T15:38:59.814Z,29.93
2018-12-16T15:41:27.273Z,29.57
2018-12-16T15:43:54.729Z,33.47
2018-12-16T15:46:22.181Z,31.73
2018-12-16T15:48:49.647Z,31.93
2018-12-16T15:51:17.204Z,28.33
2018-12-16T15:53:44.802Z,33.17
2018-12-16T15:56:12.263Z,32.27
2018-12-16T15:58:39.755Z,35.43
2018-12-16T16:01:07.206Z,30.87
2018-12-16T16:03:34.648Z,29.03
2018-12-16T16:06:02.328Z,30.90
2018-12-16T16:08:29.778Z,26.83
2018-12-16T16:10:57.238Z,26.27
2018-12-16T16:13:24.801Z,29.17
2018-12-16T16:15:52.261Z,29.00
2018-12-16T16:18:20.085Z,32.83
2018-12-16T16:20:47.729Z,35.43
2018-12-16T16:23:15.180Z,31.83
2018-12-16T16:25:42.667Z,29.60
2018-12-16T16:28:10.884Z,29.47
2018-12-16T16:30:38.703Z,31.97
2018-12-16T16:33:06.297Z,33.13
2018-12-16T16:35:33.874Z,34.50
2018-12-16T16:38:01.579Z,30.47
2018-12-16T16:40:29.169Z,30.43
2018-12-16T16:42:56.629Z,32.43
2018-12-16T16:45:24.082Z,40.90
2018-12-16T16:47:51.537Z,36.83
2018-12-16T16:50:19.301Z,34.70
2018-12-16T16:52:46.757Z,33.50
2018-12-16T16:55:14.219Z,39.03
2018-12-16T16:57:41.749Z,34.30
2018-12-16T17:00:09.598Z,32.80
2018-12-16T17:02:37.076Z,34.77
2018-12-16T17:05:05.249Z,36.17
2018-12-16T17:07:32.703Z,32.23
2018-12-16T17:10:00.372Z,39.00
2018-12-16T17:12:27.821Z,34.57
2018-12-16T17:14:55.278Z,33.40
2018-12-16T17:17:22.989Z,32.90
2018-12-16T17:19:50.621Z,35.37
2018-12-16T17:22:18.805Z,41.70
2018-12-16T17:24:46.258Z,32.40
2018-12-16T17:27:14.141Z,34.70
2018-12-16T17:29:48.723Z,34.00
2018-12-16T17:32:16.548Z,38.97
2018-12-16T17:34:44.373Z,35.63
2018-12-16T17:39:40.489Z,36.17
2018-12-16T17:42:07.967Z,34.23
2018-12-16T17:44:35.473Z,35.33
2018-12-16T17:47:02.968Z,31.97
2018-12-16T17:49:30.793Z,34.87
2018-12-16T17:51:58.373Z,34.23
2018-12-16T17:54:25.885Z,33.47
2018-12-16T17:56:53.401Z,35.10
2018-12-16T17:59:22.299Z,32.77
2018-12-16T18:01:49.920Z,35.43
2018-12-16T18:04:17.761Z,34.10
2018-12-16T18:06:45.267Z,32.67
2018-12-16T18:09:12.734Z,33.67
2018-12-16T18:11:40.211Z,35.07
2018-12-16T18:14:07.669Z,32.50
2018-12-16T18:16:35.211Z,31.93
2018-12-16T18:19:03.101Z,32.67
2018-12-16T18:21:30.561Z,32.23
2018-12-16T18:23:58.139Z,32.60
2018-12-16T18:26:25.585Z,31.47
2018-12-16T18:28:53.265Z,31.80
2018-12-16T18:31:20.784Z,31.60
2018-12-16T18:33:48.646Z,34.73
2018-12-16T18:36:16.302Z,33.93
2018-12-16T18:38:43.759Z,33.63
2018-12-16T18:41:11.230Z,31.10
2018-12-16T18:43:38.699Z,31.77
2018-12-16T18:46:06.138Z,31.20
2018-12-16T18:48:33.761Z,31.73
2018-12-16T18:51:01.664Z,30.03
2018-12-16T18:53:29.121Z,32.10
2018-12-16T18:55:56.890Z,30.67
2018-12-16T18:58:24.340Z,33.33
2018-12-16T19:00:51.795Z,32.00
2018-12-16T19:03:19.274Z,38.83
2018-12-16T19:05:47.072Z,37.00
2018-12-16T19:08:14.574Z,39.03
2018-12-16T19:10:42.507Z,35.50
2018-12-16T19:13:09.965Z,34.17
2018-12-16T19:15:37.426Z,36.47
2018-12-16T19:20:30.199Z,33.03
2018-12-16T19:22:57.657Z,30.90
2018-12-16T19:25:25.292Z,36.77
2018-12-16T19:27:52.752Z,36.10
2018-12-16T19:30:20.369Z,36.30
2018-12-16T19:32:48.012Z,33.17
2018-12-16T19:35:16.046Z,32.47
2018-12-16T19:37:44.147Z,34.00
2018-12-16T19:40:11.605Z,37.00
2018-12-16T19:42:39.393Z,35.87
2018-12-16T19:45:07.165Z,33.50
2018-12-16T19:47:34.615Z,35.57
2018-12-16T19:50:02.444Z,35.37
2018-12-16T19:52:29.938Z,32.07
2018-12-16T19:54:57.737Z,33.30
2018-12-16T19:57:25.202Z,33.33
2018-12-16T19:59:52.667Z,35.33
2018-12-16T20:02:20.128Z,33.87
2018-12-16T20:04:49.678Z,34.77
2018-12-16T20:07:17.113Z,35.17
2018-12-16T20:09:44.885Z,33.93
2018-12-16T20:12:12.337Z,35.30
2018-12-16T20:14:39.893Z,34.47
2018-12-16T20:17:07.352Z,37.90
2018-12-16T20:19:34.996Z,33.87
2018-12-16T20:22:02.461Z,39.07
2018-12-16T20:24:29.930Z,31.03
2018-12-16T20:26:57.435Z,31.70
2018-12-16T20:29:25.233Z,31.13
2018-12-16T20:31:53.212Z,35.17
2018-12-16T20:34:21.041Z,33.43
2018-12-16T20:36:48.691Z,38.17
2018-12-16T20:39:16.150Z,33.20
2018-12-16T20:41:43.616Z,33.47
2018-12-16T20:44:11.081Z,40.30
2018-12-16T20:46:38.585Z,34.83
2018-12-16T20:49:06.133Z,36.30
2018-12-16T20:51:33.799Z,34.73
2018-12-16T20:54:01.242Z,30.73
2018-12-16T20:56:28.706Z,38.00
2018-12-16T20:58:56.409Z,37.43
2018-12-16T21:01:23.865Z,37.27
2018-12-16T21:03:51.587Z,35.80
2018-12-16T21:06:19.094Z,33.17
2018-12-16T21:08:46.635Z,33.70
2018-12-16T21:11:19.851Z,36.13
2018-12-16T21:13:53.352Z,33.23
2018-12-16T21:16:26.377Z,31.13
2018-12-16T21:18:54.033Z,33.07
2018-12-16T21:21:21.490Z,29.57
2018-12-16T21:23:48.932Z,32.07
2018-12-16T21:26:16.478Z,34.63
2018-12-16T21:28:43.973Z,32.23
2018-12-16T21:31:11.423Z,33.70
2018-12-16T21:33:39.210Z,34.27
2018-12-16T21:36:07.020Z,35.03
2018-12-16T21:38:34.477Z,32.90
2018-12-16T21:41:01.966Z,37.83
2018-12-16T21:43:29.437Z,33.17
2018-12-16T21:45:56.888Z,32.03
2018-12-16T21:48:24.911Z,32.20
2018-12-16T21:50:52.606Z,36.80
2018-12-16T21:53:20.048Z,37.03
2018-12-16T21:55:47.505Z,35.93
2018-12-16T21:58:15.081Z,34.27
2018-12-16T22:00:42.562Z,35.30
2018-12-16T22:03:10.010Z,36.47
2018-12-16T22:05:37.598Z,33.30
2018-12-16T22:08:05.285Z,36.23
2018-12-16T22:10:32.765Z,33.37
2018-12-16T22:13:00.227Z,33.43
2018-12-16T22:15:27.798Z,34.10
2018-12-16T22:17:55.749Z,33.73
2018-12-16T22:20:23.366Z,34.83
2018-12-16T22:22:50.827Z,33.97
2018-12-16T22:25:18.441Z,31.73
2018-12-16T22:27:45.897Z,31.33
2018-12-16T22:30:13.361Z,35.57
2018-12-16T22:32:41.140Z,36.87
2018-12-16T22:35:08.936Z,34.83
2018-12-16T22:37:36.545Z,35.77
2018-12-16T22:40:05.125Z,36.60
2018-12-16T22:42:32.850Z,34.43
2018-12-16T22:45:00.318Z,36.00
2018-12-16T22:47:27.806Z,31.07
2018-12-16T22:49:55.819Z,34.47
2018-12-16T22:52:23.314Z,34.27
2018-12-16T22:54:51.577Z,29.73
2018-12-16T22:57:19.391Z,32.07
2018-12-16T22:59:46.853Z,33.53
2018-12-16T23:02:14.289Z,33.87
2018-12-16T23:04:42.134Z,35.13
2018-12-16T23:07:09.586Z,32.67
2018-12-16T23:09:37.473Z,35.03
2018-12-16T23:12:05.214Z,31.17
2018-12-16T23:14:32.854Z,36.23
2018-12-16T23:17:00.317Z,37.73
2018-12-16T23:19:27.996Z,37.53
2018-12-16T23:21:56.237Z,37.97
2018-12-16T23:24:24.901Z,37.13
2018-12-16T23:26:52.638Z,34.10
2018-12-16T23:29:20.091Z,32.07
2018-12-16T23:31:47.854Z,33.07
2018-12-16T23:34:15.581Z,32.90
2018-12-16T23:36:43.329Z,32.40
2018-12-16T23:39:10.773Z,32.80
2018-12-16T23:41:39.081Z,31.30
2018-12-16T23:44:06.906Z,31.23
2018-12-16T23:46:34.421Z,31.90
2018-12-16T23:49:02.185Z,36.27
2018-12-16T23:51:30.118Z,32.87
2018-12-16T23:53:58.036Z,33.50
2018-12-16T23:56:25.488Z,32.57
2018-12-16T23:58:52.994Z,32.57
